Time;durP1;ratioP1;P1;durP2;ratioP2;P2;SDS_P1;SDS_P2;PMS_P1;PMS_P2;Temp;Humidity;BMP_temperature;BMP_pressure;BME280_temperature;BME280_humidity;BME280_pressure;Samples;Min_cycle;Max_cycle;Signal;HPM_P1;HPM_P2
2023/12/25 00:00:31;;;;;;;1.75;1.10;;;;;;;;;;5079765;28;20048;-62
2023/12/25 00:02:57;;;;;;;1.55;1.10;;;;;;;;;;5071325;28;20497;-62
2023/12/25 00:05:24;;;;;;;1.98;0.90;;;;;;;;;;5072270;28;20052;-61
2023/12/25 00:07:52;;;;;;;1.63;0.80;;;;;;;;;;5091280;28;20056;-62
2023/12/25 00:10:19;;;;;;;1.83;0.80;;;;;;;;;;5087703;28;20055;-61
2023/12/25 00:12:46;;;;;;;1.73;0.73;;;;;;;;;;5074923;28;20127;-61
2023/12/25 00:15:13;;;;;;;1.67;0.85;;;;;;;;;;5070918;28;20052;-62
2023/12/25 00:17:40;;;;;;;1.10;0.68;;;;;;;;;;5072690;28;20052;-61
2023/12/25 00:20:07;;;;;;;0.98;0.68;;;;;;;;;;5072727;28;20057;-61
2023/12/25 00:22:34;;;;;;;1.17;0.63;;;;;;;;;;5072936;28;20131;-61
2023/12/25 00:25:03;;;;;;;2.00;0.70;;;;;;;;;;5073819;28;20473;-61
2023/12/25 00:27:29;;;;;;;1.60;0.70;;;;;;;;;;5072409;28;20056;-62
2023/12/25 00:29:56;;;;;;;1.67;0.60;;;;;;;;;;5072970;28;20071;-61
2023/12/25 00:32:23;;;;;;;1.38;0.80;;;;;;;;;;5072552;28;20480;-61
2023/12/25 00:34:50;;;;;;;1.83;0.60;;;;;;;;;;5072535;28;20059;-62
2023/12/25 00:37:17;;;;;;;1.60;0.60;;;;;;;;;;5072377;28;20052;-61
2023/12/25 00:39:43;;;;;;;1.00;0.60;;;;;;;;;;5074886;28;20048;-61
2023/12/25 00:42:11;;;;;;;1.35;0.50;;;;;;;;;;5093087;28;20048;-61
2023/12/25 00:44:38;;;;;;;1.20;0.70;;;;;;;;;;5093131;28;20048;-61
2023/12/25 00:47:05;;;;;;;1.52;0.70;;;;;;;;;;5092974;28;20048;-61
2023/12/25 00:49:33;;;;;;;1.27;0.80;;;;;;;;;;5093175;28;20063;-61
2023/12/25 00:52:00;;;;;;;1.30;0.73;;;;;;;;;;5092580;28;20516;-61
2023/12/25 00:54:29;;;;;;;1.80;0.80;;;;;;;;;;5091356;28;20051;-62
2023/12/25 00:56:56;;;;;;;1.20;0.70;;;;;;;;;;5073864;28;20048;-61
2023/12/25 00:59:24;;;;;;;1.58;0.80;;;;;;;;;;5072771;28;20064;-61
2023/12/25 01:01:51;;;;;;;1.50;0.65;;;;;;;;;;5072395;28;20056;-61
2023/12/25 01:04:18;;;;;;;2.15;0.90;;;;;;;;;;5072240;28;20052;-61
2023/12/25 01:06:45;;;;;;;2.33;0.90;;;;;;;;;;5084951;28;20051;-62
2023/12/25 01:09:12;;;;;;;1.50;1.00;;;;;;;;;;5091970;28;20051;-62
2023/12/25 01:11:40;;;;;;;2.13;0.93;;;;;;;;;;5077284;28;20059;-62
2023/12/25 01:14:07;;;;;;;2.13;1.10;;;;;;;;;;5092906;28;20059;-61
2023/12/25 01:16:35;;;;;;;1.30;0.90;;;;;;;;;;5092619;28;20083;-63
2023/12/25 01:19:02;;;;;;;3.88;1.33;;;;;;;;;;5092726;28;20063;-62
2023/12/25 01:21:28;;;;;;;1.33;0.90;;;;;;;;;;5092294;28;20060;-62
2023/12/25 01:23:55;;;;;;;2.25;1.40;;;;;;;;;;5092633;28;20405;-62
2023/12/25 01:26:22;;;;;;;1.77;1.25;;;;;;;;;;5076248;28;20074;-62
2023/12/25 01:28:49;;;;;;;2.08;1.40;;;;;;;;;;5072110;28;20096;-61
2023/12/25 01:31:16;;;;;;;2.30;1.50;;;;;;;;;;5072231;28;20048;-62
2023/12/25 01:33:44;;;;;;;2.63;1.33;;;;;;;;;;5072296;28;20048;-62
2023/12/25 01:36:11;;;;;;;2.13;1.30;;;;;;;;;;5072106;28;20052;-62
2023/12/25 01:38:37;;;;;;;2.65;1.88;;;;;;;;;;5072828;28;20059;-62
2023/12/25 01:41:04;;;;;;;2.58;1.42;;;;;;;;;;5076334;28;20048;-61
2023/12/25 01:43:31;;;;;;;2.20;1.60;;;;;;;;;;5076189;28;20074;-61
2023/12/25 01:45:58;;;;;;;2.65;1.65;;;;;;;;;;5075866;28;20052;-61
2023/12/25 01:48:25;;;;;;;2.22;1.30;;;;;;;;;;5076221;28;20059;-62
2023/12/25 01:50:56;;;;;;;2.50;1.40;;;;;;;;;;5075712;28;20052;-62
2023/12/25 01:53:23;;;;;;;2.80;1.48;;;;;;;;;;5076134;28;20063;-61
2023/12/25 01:55:50;;;;;;;2.15;1.20;;;;;;;;;;5076417;28;20052;-61
2023/12/25 01:58:16;;;;;;;3.95;1.55;;;;;;;;;;5086973;28;20404;-62
2023/12/25 02:00:43;;;;;;;2.75;1.30;;;;;;;;;;5096351;28;20056;-63
2023/12/25 02:03:10;;;;;;;2.70;1.40;;;;;;;;;;5095670;28;20595;-62
2023/12/25 02:05:37;;;;;;;2.72;1.40;;;;;;;;;;5095973;28;20052;-61
2023/12/25 02:08:06;;;;;;;1.60;1.15;;;;;;;;;;5095920;28;20400;-62
2023/12/25 02:10:36;;;;;;;2.83;1.23;;;;;;;;;;5083883;28;20063;-61
2023/12/25 02:13:05;;;;;;;2.75;1.10;;;;;;;;;;5075700;28;20378;-61
2023/12/25 02:15:32;;;;;;;2.38;1.00;;;;;;;;;;5075637;28;20048;-61
2023/12/25 02:17:59;;;;;;;2.22;1.10;;;;;;;;;;5075257;28;20049;-61
2023/12/25 02:20:26;;;;;;;2.92;1.10;;;;;;;;;;5075525;28;20405;-61
2023/12/25 02:22:53;;;;;;;3.05;1.25;;;;;;;;;;5082645;28;20409;-62
2023/12/25 02:25:27;;;;;;;1.90;1.00;;;;;;;;;;5088740;28;20060;-62
2023/12/25 02:27:55;;;;;;;1.95;1.20;;;;;;;;;;5075480;28;20052;-62
2023/12/25 02:30:22;;;;;;;1.67;1.00;;;;;;;;;;5075287;28;20482;-61
2023/12/25 02:32:48;;;;;;;1.85;1.08;;;;;;;;;;5075395;28;20405;-61
2023/12/25 02:35:15;;;;;;;2.03;1.00;;;;;;;;;;5074905;28;20052;-61
2023/12/25 02:37:42;;;;;;;2.47;1.00;;;;;;;;;;5075082;28;20158;-61
2023/12/25 02:40:09;;;;;;;1.65;0.90;;;;;;;;;;5075884;28;20052;-60
2023/12/25 02:42:36;;;;;;;2.20;0.90;;;;;;;;;;5075174;28;20071;-60
2023/12/25 02:45:05;;;;;;;1.75;0.80;;;;;;;;;;5075139;28;20413;-62
2023/12/25 02:47:31;;;;;;;2.22;0.90;;;;;;;;;;5074538;28;20044;-61
2023/12/25 02:49:58;;;;;;;1.77;0.90;;;;;;;;;;5071912;28;20060;-60
2023/12/25 02:52:25;;;;;;;2.33;0.80;;;;;;;;;;5074592;28;20053;-60
2023/12/25 02:54:52;;;;;;;1.40;0.90;;;;;;;;;;5074873;28;20067;-61
2023/12/25 02:57:18;;;;;;;2.70;1.00;;;;;;;;;;5074236;28;20045;-60
2023/12/25 02:59:45;;;;;;;1.85;1.13;;;;;;;;;;5075111;28;20059;-60
2023/12/25 03:02:13;;;;;;;3.78;1.10;;;;;;;;;;5074348;28;20063;-60
2023/12/25 03:04:40;;;;;;;4.07;1.20;;;;;;;;;;5074167;28;20619;-60
2023/12/25 03:07:07;;;;;;;1.75;1.30;;;;;;;;;;5090616;28;20064;-60
2023/12/25 03:09:34;;;;;;;2.13;1.20;;;;;;;;;;5092229;28;20501;-60
2023/12/25 03:12:01;;;;;;;2.80;1.02;;;;;;;;;;5074596;28;20053;-60
2023/12/25 03:14:27;;;;;;;1.38;0.90;;;;;;;;;;5074569;28;20075;-60
2023/12/25 03:16:53;;;;;;;1.40;0.90;;;;;;;;;;5073947;28;20052;-61
2023/12/25 03:19:21;;;;;;;2.33;0.90;;;;;;;;;;5074500;28;20490;-61
2023/12/25 03:21:48;;;;;;;2.50;0.90;;;;;;;;;;5074430;28;20491;-60
2023/12/25 03:24:15;;;;;;;1.85;1.00;;;;;;;;;;5079356;28;20059;-61
2023/12/25 03:26:42;;;;;;;2.65;1.00;;;;;;;;;;5076708;28;20052;-61
2023/12/25 03:29:09;;;;;;;2.58;1.00;;;;;;;;;;5074192;28;20048;-61
2023/12/25 03:31:36;;;;;;;2.13;1.00;;;;;;;;;;5074172;28;20057;-62
2023/12/25 03:34:03;;;;;;;1.83;0.82;;;;;;;;;;5083690;28;20378;-61
2023/12/25 03:36:31;;;;;;;1.55;0.90;;;;;;;;;;5093882;28;20048;-61
2023/12/25 03:38:58;;;;;;;2.13;1.08;;;;;;;;;;5094205;28;20055;-61
2023/12/25 03:41:25;;;;;;;1.67;1.02;;;;;;;;;;5091162;28;20515;-61
2023/12/25 03:43:51;;;;;;;3.92;1.20;;;;;;;;;;5094006;28;20051;-61
2023/12/25 03:46:18;;;;;;;1.65;1.00;;;;;;;;;;5094066;28;20405;-61
2023/12/25 03:48:46;;;;;;;2.50;1.00;;;;;;;;;;5094135;28;20389;-60
2023/12/25 03:51:13;;;;;;;1.70;1.10;;;;;;;;;;5094150;28;20489;-61
2023/12/25 03:53:41;;;;;;;1.67;1.00;;;;;;;;;;5093685;28;20408;-61
2023/12/25 03:56:07;;;;;;;1.75;1.00;;;;;;;;;;5084030;28;20057;-60
2023/12/25 03:58:34;;;;;;;2.17;1.30;;;;;;;;;;5073422;28;20045;-60
2023/12/25 04:01:01;;;;;;;1.75;1.30;;;;;;;;;;5072949;28;20383;-60
2023/12/25 04:03:28;;;;;;;2.15;1.10;;;;;;;;;;5072990;28;20502;-60
2023/12/25 04:05:54;;;;;;;3.38;1.20;;;;;;;;;;5079343;28;20072;-60
2023/12/25 04:08:21;;;;;;;2.85;1.52;;;;;;;;;;5093396;28;20400;-60
2023/12/25 04:10:49;;;;;;;2.17;1.10;;;;;;;;;;5090363;28;20052;-60
2023/12/25 04:13:16;;;;;;;3.47;1.10;;;;;;;;;;5076245;28;20056;-61
2023/12/25 04:15:43;;;;;;;2.35;1.10;;;;;;;;;;5073151;28;20052;-61
2023/12/25 04:18:10;;;;;;;1.55;1.02;;;;;;;;;;5073114;28;20045;-61
2023/12/25 04:20:37;;;;;;;2.10;1.05;;;;;;;;;;5073237;28;20060;-62
2023/12/25 04:23:04;;;;;;;2.50;1.15;;;;;;;;;;5072836;28;20071;-61
2023/12/25 04:25:30;;;;;;;1.40;1.00;;;;;;;;;;5072522;28;20064;-62
2023/12/25 04:27:58;;;;;;;1.80;1.20;;;;;;;;;;5073796;28;20374;-61
2023/12/25 04:30:25;;;;;;;1.65;1.10;;;;;;;;;;5077659;28;20055;-61
2023/12/25 04:32:52;;;;;;;3.42;1.30;;;;;;;;;;5093014;28;20055;-62
2023/12/25 04:35:18;;;;;;;2.40;1.20;;;;;;;;;;5093109;28;20386;-61
2023/12/25 04:37:46;;;;;;;2.30;1.40;;;;;;;;;;5092551;28;20058;-62
2023/12/25 04:40:12;;;;;;;2.15;1.17;;;;;;;;;;5093083;28;20059;-63
2023/12/25 04:42:39;;;;;;;2.30;1.20;;;;;;;;;;5074085;28;20052;-62
2023/12/25 04:45:08;;;;;;;1.77;1.10;;;;;;;;;;5072649;28;20055;-62
2023/12/25 04:47:35;;;;;;;2.25;1.25;;;;;;;;;;5072819;28;21575;-62
2023/12/25 04:50:02;;;;;;;1.98;1.02;;;;;;;;;;5072715;28;20409;-62
2023/12/25 04:52:29;;;;;;;3.35;1.13;;;;;;;;;;5072506;28;20507;-62
2023/12/25 04:54:56;;;;;;;1.88;1.20;;;;;;;;;;5072477;28;20048;-63
2023/12/25 04:57:22;;;;;;;2.88;1.10;;;;;;;;;;5072447;28;20063;-62
2023/12/25 04:59:49;;;;;;;1.70;1.10;;;;;;;;;;5072532;28;20049;-62
2023/12/25 05:02:17;;;;;;;2.13;1.20;;;;;;;;;;5072511;28;20382;-63
2023/12/25 05:04:44;;;;;;;1.88;1.17;;;;;;;;;;5072138;28;20063;-62
2023/12/25 05:07:11;;;;;;;2.55;1.17;;;;;;;;;;5088880;28;20390;-62
2023/12/25 05:09:38;;;;;;;2.70;1.10;;;;;;;;;;5092669;28;20048;-62
2023/12/25 05:12:06;;;;;;;2.53;1.10;;;;;;;;;;5089349;28;20055;-62
2023/12/25 05:14:32;;;;;;;3.15;1.48;;;;;;;;;;5097069;28;20056;-62
2023/12/25 05:16:59;;;;;;;2.75;1.33;;;;;;;;;;5096817;28;20055;-62
2023/12/25 05:19:27;;;;;;;2.38;1.20;;;;;;;;;;5097061;28;20048;-63
2023/12/25 05:21:54;;;;;;;2.78;1.30;;;;;;;;;;5096556;28;20060;-63
2023/12/25 05:24:21;;;;;;;4.07;1.38;;;;;;;;;;5096820;28;20052;-62
2023/12/25 05:26:48;;;;;;;1.65;1.17;;;;;;;;;;5086914;28;20055;-62
2023/12/25 05:29:15;;;;;;;1.48;0.88;;;;;;;;;;5076322;28;20044;-62
2023/12/25 05:31:41;;;;;;;2.67;1.10;;;;;;;;;;5076034;28;20079;-62
2023/12/25 05:34:08;;;;;;;1.95;0.85;;;;;;;;;;5076495;28;20055;-62
2023/12/25 05:36:36;;;;;;;2.00;0.90;;;;;;;;;;5076324;28;20055;-62
2023/12/25 05:39:04;;;;;;;2.55;1.05;;;;;;;;;;5076220;28;20052;-63
2023/12/25 05:41:31;;;;;;;2.83;1.00;;;;;;;;;;5077598;28;20055;-62
2023/12/25 05:43:57;;;;;;;2.22;0.90;;;;;;;;;;5079062;28;20056;-63
2023/12/25 05:46:24;;;;;;;2.30;0.95;;;;;;;;;;5078662;28;20052;-62
2023/12/25 05:48:51;;;;;;;1.80;1.00;;;;;;;;;;5096308;28;20044;-62
2023/12/25 05:51:17;;;;;;;2.13;0.85;;;;;;;;;;5095914;28;20059;-62
2023/12/25 05:53:46;;;;;;;1.55;0.98;;;;;;;;;;5096323;28;20078;-62
2023/12/25 05:56:12;;;;;;;2.25;0.90;;;;;;;;;;5091726;28;20785;-63
2023/12/25 05:58:39;;;;;;;1.70;1.00;;;;;;;;;;5075611;28;20405;-62
2023/12/25 06:01:08;;;;;;;1.90;0.82;;;;;;;;;;5075695;28;20052;-62
2023/12/25 06:03:35;;;;;;;1.85;0.93;;;;;;;;;;5075345;28;20060;-62
2023/12/25 06:06:02;;;;;;;3.00;1.00;;;;;;;;;;5082246;28;20052;-62
2023/12/25 06:08:29;;;;;;;1.55;0.73;;;;;;;;;;5095562;28;20059;-62
2023/12/25 06:10:57;;;;;;;1.40;1.02;;;;;;;;;;5095332;28;20056;-62
2023/12/25 06:13:25;;;;;;;1.77;1.00;;;;;;;;;;5092440;28;20086;-62
2023/12/25 06:15:51;;;;;;;1.85;0.90;;;;;;;;;;5095702;28;20051;-62
2023/12/25 06:18:18;;;;;;;1.58;0.80;;;;;;;;;;5095366;28;20059;-62
2023/12/25 06:20:45;;;;;;;1.60;1.05;;;;;;;;;;5095601;28;20634;-62
2023/12/25 06:23:12;;;;;;;1.48;0.80;;;;;;;;;;5095415;28;20048;-61
2023/12/25 06:25:39;;;;;;;3.60;0.93;;;;;;;;;;5094628;28;20458;-62
2023/12/25 06:28:07;;;;;;;2.08;0.90;;;;;;;;;;5080443;28;20436;-62
2023/12/25 06:30:34;;;;;;;2.50;0.90;;;;;;;;;;5075005;28;20056;-61
2023/12/25 06:33:01;;;;;;;2.97;1.00;;;;;;;;;;5075228;28;20079;-62
2023/12/25 06:35:28;;;;;;;1.65;0.88;;;;;;;;;;5074786;28;20065;-61
2023/12/25 06:37:54;;;;;;;1.27;0.80;;;;;;;;;;5074627;28;20063;-61
2023/12/25 06:40:21;;;;;;;1.80;0.80;;;;;;;;;;5074676;28;20048;-62
2023/12/25 06:42:48;;;;;;;1.67;0.80;;;;;;;;;;5077676;28;20048;-62
2023/12/25 06:45:16;;;;;;;1.27;0.80;;;;;;;;;;5094767;28;20052;-62
2023/12/25 06:47:43;;;;;;;1.70;0.63;;;;;;;;;;5095083;28;20063;-61
2023/12/25 06:50:10;;;;;;;1.70;0.70;;;;;;;;;;5095196;28;20055;-61
2023/12/25 06:52:40;;;;;;;1.08;0.80;;;;;;;;;;5094897;28;20055;-62
2023/12/25 06:55:08;;;;;;;1.63;0.80;;;;;;;;;;5094715;28;20063;-61
2023/12/25 06:57:36;;;;;;;1.67;0.90;;;;;;;;;;5087568;28;20501;-62
2023/12/25 07:00:03;;;;;;;1.85;0.68;;;;;;;;;;5074192;28;20052;-63
2023/12/25 07:02:31;;;;;;;1.85;1.10;;;;;;;;;;5094305;28;20048;-62
2023/12/25 07:04:58;;;;;;;1.83;1.05;;;;;;;;;;5093770;28;20075;-61
2023/12/25 07:07:25;;;;;;;2.05;1.10;;;;;;;;;;5094642;28;20477;-62
2023/12/25 07:09:52;;;;;;;1.50;1.00;;;;;;;;;;5094853;28;20396;-62
2023/12/25 07:12:19;;;;;;;2.88;0.90;;;;;;;;;;5092024;28;20067;-62
2023/12/25 07:14:46;;;;;;;2.15;0.98;;;;;;;;;;5090923;28;20484;-61
2023/12/25 07:17:13;;;;;;;2.20;1.20;;;;;;;;;;5094601;28;20397;-61
2023/12/25 07:19:41;;;;;;;2.65;1.00;;;;;;;;;;5094252;28;20126;-62
2023/12/25 07:22:08;;;;;;;2.15;1.10;;;;;;;;;;5085986;28;20500;-61
2023/12/25 07:24:35;;;;;;;2.40;1.17;;;;;;;;;;5085103;28;20461;-62
2023/12/25 07:27:01;;;;;;;2.72;1.02;;;;;;;;;;5094579;28;20063;-62
2023/12/25 07:29:28;;;;;;;2.42;1.20;;;;;;;;;;5075616;28;20051;-62
2023/12/25 07:31:55;;;;;;;1.90;1.23;;;;;;;;;;5073973;28;20048;-61
2023/12/25 07:34:22;;;;;;;2.05;1.10;;;;;;;;;;5073982;28;20501;-62
2023/12/25 07:36:50;;;;;;;2.80;0.98;;;;;;;;;;5073305;28;20052;-62
2023/12/25 07:39:17;;;;;;;2.33;0.90;;;;;;;;;;5074011;28;20458;-62
2023/12/25 07:41:46;;;;;;;1.75;0.90;;;;;;;;;;5073660;28;20053;-61
2023/12/25 07:44:12;;;;;;;2.23;1.00;;;;;;;;;;5081976;28;20579;-61
2023/12/25 07:46:39;;;;;;;1.70;1.05;;;;;;;;;;5077357;28;20508;-61
2023/12/25 07:49:06;;;;;;;1.60;0.80;;;;;;;;;;5073292;28;20052;-61
2023/12/25 07:51:33;;;;;;;1.88;0.90;;;;;;;;;;5073494;28;20048;-61
2023/12/25 07:54:01;;;;;;;1.77;0.90;;;;;;;;;;5073743;28;20060;-61
2023/12/25 07:56:28;;;;;;;2.33;1.20;;;;;;;;;;5073627;28;20055;-61
2023/12/25 07:58:54;;;;;;;2.20;1.10;;;;;;;;;;5080189;28;20181;-62
2023/12/25 08:01:22;;;;;;;1.83;1.10;;;;;;;;;;5082340;28;20051;-61
2023/12/25 08:03:50;;;;;;;1.75;1.02;;;;;;;;;;5073039;28;20059;-61
2023/12/25 08:06:16;;;;;;;1.75;0.90;;;;;;;;;;5073214;28;20398;-61
2023/12/25 08:08:44;;;;;;;2.67;1.30;;;;;;;;;;5074268;28;20055;-62
2023/12/25 08:11:15;;;;;;;2.17;1.02;;;;;;;;;;5072885;28;20417;-61
2023/12/25 08:13:41;;;;;;;1.60;1.13;;;;;;;;;;5073276;28;20497;-62
2023/12/25 08:16:08;;;;;;;2.47;1.30;;;;;;;;;;5072839;28;20052;-62
2023/12/25 08:18:35;;;;;;;2.42;1.25;;;;;;;;;;5072970;28;20079;-61
2023/12/25 08:21:04;;;;;;;2.42;1.20;;;;;;;;;;5088283;28;20055;-62
2023/12/25 08:23:30;;;;;;;1.80;1.02;;;;;;;;;;5093242;28;20059;-61
2023/12/25 08:25:57;;;;;;;1.98;1.05;;;;;;;;;;5092925;28;20048;-62
2023/12/25 08:28:25;;;;;;;1.83;1.02;;;;;;;;;;5090961;28;20401;-62
2023/12/25 08:30:52;;;;;;;3.25;1.58;;;;;;;;;;5077711;28;20052;-62
2023/12/25 08:33:19;;;;;;;2.13;1.50;;;;;;;;;;5079328;28;20056;-62
2023/12/25 08:35:46;;;;;;;2.30;1.40;;;;;;;;;;5072501;28;20059;-61
2023/12/25 08:38:13;;;;;;;2.38;1.30;;;;;;;;;;5072417;28;20497;-61
2023/12/25 08:40:40;;;;;;;2.00;1.17;;;;;;;;;;5072545;28;20090;-62
2023/12/25 08:43:06;;;;;;;2.35;1.15;;;;;;;;;;5077887;28;20040;-61
2023/12/25 08:45:35;;;;;;;2.33;0.93;;;;;;;;;;5074503;28;20443;-61
2023/12/25 08:48:02;;;;;;;2.90;1.38;;;;;;;;;;5072296;28;20504;-61
2023/12/25 08:50:28;;;;;;;2.25;1.13;;;;;;;;;;5072518;28;20056;-63
2023/12/25 08:52:55;;;;;;;1.60;0.90;;;;;;;;;;5072350;28;20056;-60
2023/12/25 08:55:22;;;;;;;1.60;0.88;;;;;;;;;;5072662;28;20406;-61
2023/12/25 08:57:49;;;;;;;3.08;1.33;;;;;;;;;;5072202;28;20413;-60
2023/12/25 09:00:16;;;;;;;1.92;1.17;;;;;;;;;;5073387;28;20048;-63
2023/12/25 09:02:44;;;;;;;3.00;1.50;;;;;;;;;;5082212;28;20048;-62
2023/12/25 09:05:11;;;;;;;2.63;1.50;;;;;;;;;;5079608;28;20049;-61
2023/12/25 09:07:40;;;;;;;2.38;1.50;;;;;;;;;;5085149;28;20502;-60
2023/12/25 09:10:07;;;;;;;1.92;1.40;;;;;;;;;;5092112;28;20052;-61
2023/12/25 09:12:34;;;;;;;3.83;1.27;;;;;;;;;;5086557;28;20401;-61
2023/12/25 09:15:01;;;;;;;2.05;1.42;;;;;;;;;;5076265;28;20520;-61
2023/12/25 09:17:28;;;;;;;2.60;1.30;;;;;;;;;;5089256;28;20055;-61
2023/12/25 09:19:56;;;;;;;2.05;1.30;;;;;;;;;;5092961;28;20048;-60
2023/12/25 09:22:24;;;;;;;2.22;1.70;;;;;;;;;;5075250;28;20064;-60
2023/12/25 09:24:51;;;;;;;2.30;1.08;;;;;;;;;;5083263;28;20048;-60
2023/12/25 09:27:18;;;;;;;2.63;1.40;;;;;;;;;;5092551;28;20092;-60
2023/12/25 09:29:45;;;;;;;2.45;1.10;;;;;;;;;;5080279;28;20052;-60
2023/12/25 09:32:12;;;;;;;2.60;1.38;;;;;;;;;;5072005;28;20056;-61
2023/12/25 09:34:39;;;;;;;2.30;1.20;;;;;;;;;;5081712;28;20056;-60
2023/12/25 09:37:07;;;;;;;1.58;0.80;;;;;;;;;;5092213;28;20056;-60
2023/12/25 09:39:34;;;;;;;1.20;0.70;;;;;;;;;;5092635;28;20059;-61
2023/12/25 09:42:01;;;;;;;1.02;0.40;;;;;;;;;;5092114;28;20421;-61
2023/12/25 09:44:28;;;;;;;0.95;0.40;;;;;;;;;;5089451;28;20048;-60
2023/12/25 09:46:56;;;;;;;0.93;0.50;;;;;;;;;;5092514;28;20063;-60
2023/12/25 09:49:24;;;;;;;0.80;0.30;;;;;;;;;;5092591;28;20504;-59
2023/12/25 09:51:53;;;;;;;0.50;0.20;;;;;;;;;;5092388;28;20059;-59
2023/12/25 09:54:22;;;;;;;0.70;0.30;;;;;;;;;;5092507;28;20048;-59
2023/12/25 09:56:49;;;;;;;0.50;0.20;;;;;;;;;;5092360;28;20062;-59
2023/12/25 09:59:16;;;;;;;0.82;0.43;;;;;;;;;;5088393;28;20056;-59
2023/12/25 10:01:43;;;;;;;1.52;0.85;;;;;;;;;;5075944;28;20393;-58
2023/12/25 10:04:10;;;;;;;1.70;1.10;;;;;;;;;;5075348;28;20056;-59
2023/12/25 10:06:37;;;;;;;1.92;0.70;;;;;;;;;;5075682;28;20060;-58
2023/12/25 10:09:04;;;;;;;3.00;1.15;;;;;;;;;;5087852;28;20059;-58
2023/12/25 10:11:32;;;;;;;2.55;1.27;;;;;;;;;;5096138;28;20051;-59
2023/12/25 10:13:59;;;;;;;1.52;0.80;;;;;;;;;;5093584;28;20052;-59
2023/12/25 10:16:27;;;;;;;2.47;1.52;;;;;;;;;;5084575;28;20056;-58
2023/12/25 10:18:55;;;;;;;1.98;1.38;;;;;;;;;;5095342;28;20059;-58
2023/12/25 10:21:22;;;;;;;2.78;2.10;;;;;;;;;;5095619;28;20048;-59
2023/12/25 10:23:49;;;;;;;1.92;1.50;;;;;;;;;;5095747;28;20052;-58
2023/12/25 10:26:26;;;;;;;2.70;1.60;;;;;;;;;;5095635;28;20048;-59
2023/12/25 10:29:06;;;;;;;2.08;1.67;;;;;;;;;;5095207;28;20048;-61
2023/12/25 10:31:33;;;;;;;2.67;1.75;;;;;;;;;;5075120;28;20071;-59
2023/12/25 10:34:00;;;;;;;2.17;1.83;;;;;;;;;;5075275;28;20490;-60
2023/12/25 10:36:27;;;;;;;2.85;2.00;;;;;;;;;;5075119;28;20486;-58
2023/12/25 10:38:54;;;;;;;1.98;1.10;;;;;;;;;;5075273;28;20053;-59
2023/12/25 10:41:20;;;;;;;2.38;1.92;;;;;;;;;;5075240;28;20051;-59
2023/12/25 10:43:50;;;;;;;2.90;2.40;;;;;;;;;;5075021;28;20052;-60
2023/12/25 10:46:20;;;;;;;2.53;2.33;;;;;;;;;;5073101;28;20083;-58
2023/12/25 10:48:49;;;;;;;2.38;2.17;;;;;;;;;;5074184;28;20075;-59
2023/12/25 10:51:17;;;;;;;3.13;2.78;;;;;;;;;;5075005;28;20049;-58
2023/12/25 10:53:44;;;;;;;3.10;2.67;;;;;;;;;;5074992;28;20060;-58
2023/12/25 10:56:12;;;;;;;3.22;2.10;;;;;;;;;;5074814;28;20064;-59
2023/12/25 10:58:39;;;;;;;2.33;1.50;;;;;;;;;;5074709;28;20057;-59
2023/12/25 11:01:06;;;;;;;2.70;2.03;;;;;;;;;;5074048;28;20405;-59
2023/12/25 11:03:34;;;;;;;2.65;2.00;;;;;;;;;;5074392;28;20075;-59
2023/12/25 11:06:03;;;;;;;5.45;4.32;;;;;;;;;;5074592;28;20410;-59
2023/12/25 11:08:30;;;;;;;4.20;3.30;;;;;;;;;;5074793;28;20040;-60
2023/12/25 11:10:57;;;;;;;2.80;2.05;;;;;;;;;;5073989;28;20056;-59
2023/12/25 11:13:25;;;;;;;4.40;3.00;;;;;;;;;;5074529;28;20063;-58
2023/12/25 11:15:52;;;;;;;3.90;3.17;;;;;;;;;;5073296;28;20063;-59
2023/12/25 11:18:18;;;;;;;2.70;2.00;;;;;;;;;;5074643;28;20413;-58
2023/12/25 11:21:00;;;;;;;2.75;2.30;;;;;;;;;;5074634;28;20059;-59
2023/12/25 11:23:29;;;;;;;1.95;1.35;;;;;;;;;;5074753;28;20075;-59
2023/12/25 11:25:56;;;;;;;2.90;1.80;;;;;;;;;;5074225;28;20053;-58
2023/12/25 11:28:23;;;;;;;4.35;2.30;;;;;;;;;;5074157;28;20053;-59
2023/12/25 11:30:50;;;;;;;7.32;3.65;;;;;;;;;;5073371;28;20055;-59
2023/12/25 11:33:19;;;;;;;4.60;2.30;;;;;;;;;;5073702;28;20060;-59
2023/12/25 11:35:46;;;;;;;1.50;0.93;;;;;;;;;;5073845;28;20056;-59
2023/12/25 11:38:30;;;;;;;1.70;1.00;;;;;;;;;;5073656;28;20052;-59
2023/12/25 11:41:01;;;;;;;5.18;2.10;;;;;;;;;;5072363;28;20059;-59
2023/12/25 11:43:30;;;;;;;3.25;2.30;;;;;;;;;;5074749;28;20053;-59
2023/12/25 11:45:57;;;;;;;;;;;;;;;;;;5085622;28;20060;-59
2023/12/25 11:48:27;;;;;;;9.57;3.88;;;;;;;;;;5094413;28;20376;-59
2023/12/25 11:50:59;;;;;;;4.65;2.30;;;;;;;;;;5084541;28;20386;-58
2023/12/25 11:53:37;;;;;;;7.65;3.25;;;;;;;;;;5079725;28;20067;-59
2023/12/25 11:56:05;;;;;;;7.90;3.08;;;;;;;;;;5080566;28;20055;-60
2023/12/25 11:58:32;;;;;;;18.92;5.78;;;;;;;;;;5092209;28;20062;-60
2023/12/25 12:00:59;;;;;;;3.47;2.15;;;;;;;;;;5086553;28;20119;-60
2023/12/25 12:03:26;;;;;;;2.80;1.95;;;;;;;;;;5080110;28;20453;-59
2023/12/25 12:05:53;;;;;;;1.98;1.60;;;;;;;;;;5075638;28;20441;-58
2023/12/25 12:08:19;;;;;;;4.00;2.13;;;;;;;;;;5075302;28;20055;-60
2023/12/25 12:10:48;;;;;;;7.32;3.05;;;;;;;;;;5089413;28;20044;-59
2023/12/25 12:13:16;;;;;;;4.45;2.92;;;;;;;;;;5073249;28;20063;-59
2023/12/25 12:15:42;;;;;;;5.18;3.50;;;;;;;;;;5076766;28;20056;-59
2023/12/25 12:18:09;;;;;;;4.30;3.13;;;;;;;;;;5073101;28;20049;-59
2023/12/25 12:20:37;;;;;;;3.13;2.20;;;;;;;;;;5073318;28;20409;-59
2023/12/25 12:23:04;;;;;;;4.30;3.20;;;;;;;;;;5074859;28;20055;-60
2023/12/25 12:25:31;;;;;;;2.63;1.35;;;;;;;;;;5078625;28;20048;-59
2023/12/25 12:28:00;;;;;;;1.35;0.90;;;;;;;;;;5073078;28;20063;-59
2023/12/25 12:30:30;;;;;;;1.55;0.90;;;;;;;;;;5079951;28;20060;-59
2023/12/25 12:32:56;;;;;;;3.03;1.30;;;;;;;;;;5072435;28;20044;-59
2023/12/25 12:35:24;;;;;;;2.55;0.88;;;;;;;;;;5073297;28;20044;-59
2023/12/25 12:37:50;;;;;;;16.38;14.50;;;;;;;;;;5076939;28;20048;-60
2023/12/25 12:40:17;;;;;;;2.00;1.45;;;;;;;;;;5087396;28;20052;-59
2023/12/25 12:42:44;;;;;;;3.15;1.42;;;;;;;;;;5072980;28;20060;-58
2023/12/25 12:45:13;;;;;;;1.50;1.05;;;;;;;;;;5085460;28;20052;-59
2023/12/25 12:47:39;;;;;;;1.60;1.00;;;;;;;;;;5072370;28;20063;-59
2023/12/25 12:50:08;;;;;;;1.85;0.90;;;;;;;;;;5073026;28;20413;-59
2023/12/25 12:52:35;;;;;;;1.58;0.65;;;;;;;;;;5085930;28;20043;-59
2023/12/25 12:55:03;;;;;;;1.20;0.55;;;;;;;;;;5092332;28;20063;-60
2023/12/25 12:57:30;;;;;;;1.55;0.50;;;;;;;;;;5090939;28;20044;-59
2023/12/25 12:59:56;;;;;;;1.20;0.60;;;;;;;;;;5092552;28;20058;-58
2023/12/25 13:02:25;;;;;;;1.80;1.20;;;;;;;;;;5073112;28;20402;-59
2023/12/25 13:04:51;;;;;;;1.95;1.27;;;;;;;;;;5084769;28;20052;-59
2023/12/25 13:07:18;;;;;;;1.25;0.70;;;;;;;;;;5075260;28;20048;-59
2023/12/25 13:09:45;;;;;;;1.08;0.60;;;;;;;;;;5092515;28;20052;-58
2023/12/25 13:12:12;;;;;;;1.00;0.55;;;;;;;;;;5091083;28;20048;-58
2023/12/25 13:14:39;;;;;;;1.38;0.80;;;;;;;;;;5075650;28;20055;-58
2023/12/25 13:17:06;;;;;;;2.28;1.55;;;;;;;;;;5087665;28;20052;-59
2023/12/25 13:19:34;;;;;;;2.75;2.00;;;;;;;;;;5073679;28;20048;-58
2023/12/25 13:22:01;;;;;;;2.80;1.85;;;;;;;;;;5077989;28;20496;-58
2023/12/25 13:24:28;;;;;;;1.80;1.05;;;;;;;;;;5073104;28;20398;-58
2023/12/25 13:26:55;;;;;;;2.10;1.50;;;;;;;;;;5081171;28;20056;-58
2023/12/25 13:29:21;;;;;;;2.10;1.60;;;;;;;;;;5080658;28;20045;-58
2023/12/25 13:31:48;;;;;;;2.60;1.60;;;;;;;;;;5081855;28;20060;-58
2023/12/25 13:34:15;;;;;;;1.95;1.10;;;;;;;;;;5082137;28;20044;-59
2023/12/25 13:36:44;;;;;;;2.40;1.20;;;;;;;;;;5084115;28;20057;-59
2023/12/25 13:39:11;;;;;;;1.63;1.10;;;;;;;;;;5085950;28;20477;-58
2023/12/25 13:41:38;;;;;;;1.77;1.10;;;;;;;;;;5084636;28;20055;-59
2023/12/25 13:44:05;;;;;;;1.88;1.20;;;;;;;;;;5085257;28;20520;-59
2023/12/25 13:46:32;;;;;;;2.03;1.40;;;;;;;;;;5083660;28;20052;-58
2023/12/25 13:48:59;;;;;;;2.00;1.20;;;;;;;;;;5080447;28;20382;-59
2023/12/25 13:51:26;;;;;;;2.00;1.60;;;;;;;;;;5082471;28;20060;-59
2023/12/25 13:53:54;;;;;;;2.80;1.73;;;;;;;;;;5084504;28;20421;-59
2023/12/25 13:56:24;;;;;;;2.83;1.90;;;;;;;;;;5085702;28;20052;-59
2023/12/25 13:58:50;;;;;;;2.47;2.00;;;;;;;;;;5085720;28;20049;-59
2023/12/25 14:01:17;;;;;;;4.25;2.67;;;;;;;;;;5085889;28;20051;-59
2023/12/25 14:03:44;;;;;;;3.55;2.60;;;;;;;;;;5083811;28;20060;-59
2023/12/25 14:06:11;;;;;;;2.88;2.38;;;;;;;;;;5083955;28;20049;-58
2023/12/25 14:08:38;;;;;;;2.85;2.22;;;;;;;;;;5079904;28;20045;-59
2023/12/25 14:11:06;;;;;;;2.60;2.40;;;;;;;;;;5076243;28;20056;-59
2023/12/25 14:13:34;;;;;;;;;;;;;;;;;;5086596;28;20036;-62
2023/12/25 14:16:01;;;;;;;3.28;2.58;;;;;;;;;;5078537;28;19939;-59
2023/12/25 14:18:28;;;;;;;3.35;2.88;;;;;;;;;;5080892;28;20048;-59
2023/12/25 14:20:55;;;;;;;3.85;3.33;;;;;;;;;;5088929;28;20052;-59
2023/12/25 14:23:22;;;;;;;4.93;3.80;;;;;;;;;;5081663;28;20055;-60
2023/12/25 14:25:50;;;;;;;5.00;4.20;;;;;;;;;;5092583;28;20051;-59
2023/12/25 14:28:18;;;;;;;4.22;3.33;;;;;;;;;;5081774;28;20053;-59
2023/12/25 14:30:45;;;;;;;3.20;2.83;;;;;;;;;;5086768;28;20059;-59
2023/12/25 14:33:15;;;;;;;3.25;2.70;;;;;;;;;;5081308;28;20071;-62
2023/12/25 14:35:42;;;;;;;4.18;2.97;;;;;;;;;;5075498;28;20056;-59
2023/12/25 14:38:10;;;;;;;3.35;2.88;;;;;;;;;;5079905;28;20056;-58
2023/12/25 14:40:36;;;;;;;6.25;4.05;;;;;;;;;;5080940;28;20059;-59
2023/12/25 14:43:03;;;;;;;7.43;4.80;;;;;;;;;;5092546;28;20041;-59